sensor_id;sensor_type;location;lat;lon;timestamp;P1;durP1;ratioP1;P2;durP2;ratioP2
23498;SDS011;11926;48.120;11.562;2022-11-12T00:00:12;17.65;;;10.88;;
23498;SDS011;11926;48.120;11.562;2022-11-12T00:03:20;17.40;;;11.43;;
23498;SDS011;11926;48.120;11.562;2022-11-12T00:06:28;19.90;;;11.93;;
23498;SDS011;11926;48.120;11.562;2022-11-12T00:09:35;22.27;;;11.40;;
23498;SDS011;11926;48.120;11.562;2022-11-12T00:12:42;21.02;;;10.88;;
23498;SDS011;11926;48.120;11.562;2022-11-12T00:15:49;20.10;;;12.05;;
23498;SDS011;11926;48.120;11.562;2022-11-12T00:18:58;18.23;;;11.50;;
23498;SDS011;11926;48.120;11.562;2022-11-12T00:22:05;20.45;;;12.27;;
23498;SDS011;11926;48.120;11.562;2022-11-12T00:25:14;19.65;;;12.10;;
23498;SDS011;11926;48.120;11.562;2022-11-12T00:28:22;21.08;;;12.00;;
23498;SDS011;11926;48.120;11.562;2022-11-12T00:31:30;23.88;;;13.75;;
23498;SDS011;11926;48.120;11.562;2022-11-12T00:34:39;22.83;;;12.95;;
23498;SDS011;11926;48.120;11.562;2022-11-12T00:37:46;26.77;;;15.27;;
23498;SDS011;11926;48.120;11.562;2022-11-12T00:40:58;21.17;;;13.60;;
23498;SDS011;11926;48.120;11.562;2022-11-12T00:44:05;20.08;;;12.77;;
23498;SDS011;11926;48.120;11.562;2022-11-12T00:47:12;24.58;;;15.00;;
23498;SDS011;11926;48.120;11.562;2022-11-12T00:50:21;26.90;;;16.20;;
23498;SDS011;11926;48.120;11.562;2022-11-12T00:53:32;28.52;;;17.45;;
23498;SDS011;11926;48.120;11.562;2022-11-12T00:56:45;24.75;;;16.38;;
23498;SDS011;11926;48.120;11.562;2022-11-12T00:59:57;28.15;;;16.35;;
23498;SDS011;11926;48.120;11.562;2022-11-12T01:03:08;27.52;;;17.75;;
23498;SDS011;11926;48.120;11.562;2022-11-12T01:06:18;27.20;;;18.17;;
23498;SDS011;11926;48.120;11.562;2022-11-12T01:09:31;28.48;;;16.98;;
23498;SDS011;11926;48.120;11.562;2022-11-12T01:12:44;31.02;;;19.52;;
23498;SDS011;11926;48.120;11.562;2022-11-12T01:15:56;27.30;;;18.10;;
23498;SDS011;11926;48.120;11.562;2022-11-12T01:19:04;35.85;;;21.30;;
23498;SDS011;11926;48.120;11.562;2022-11-12T01:22:19;32.33;;;20.45;;
23498;SDS011;11926;48.120;11.562;2022-11-12T01:25:31;32.28;;;21.17;;
23498;SDS011;11926;48.120;11.562;2022-11-12T01:28:39;39.55;;;24.33;;
23498;SDS011;11926;48.120;11.562;2022-11-12T01:31:47;39.10;;;23.42;;
23498;SDS011;11926;48.120;11.562;2022-11-12T01:34:56;39.30;;;24.77;;
23498;SDS011;11926;48.120;11.562;2022-11-12T01:38:10;38.38;;;23.35;;
23498;SDS011;11926;48.120;11.562;2022-11-12T01:41:40;39.55;;;23.10;;
23498;SDS011;11926;48.120;11.562;2022-11-12T01:45:00;38.35;;;23.23;;
23498;SDS011;11926;48.120;11.562;2022-11-12T01:48:08;39.40;;;23.45;;
23498;SDS011;11926;48.120;11.562;2022-11-12T01:51:31;37.20;;;23.08;;
23498;SDS011;11926;48.120;11.562;2022-11-12T01:54:50;35.00;;;22.20;;
23498;SDS011;11926;48.120;11.562;2022-11-12T01:58:07;32.33;;;22.02;;
23498;SDS011;11926;48.120;11.562;2022-11-12T02:01:18;33.08;;;22.55;;
23498;SDS011;11926;48.120;11.562;2022-11-12T02:04:27;35.35;;;23.52;;
23498;SDS011;11926;48.120;11.562;2022-11-12T02:07:39;37.33;;;22.70;;
23498;SDS011;11926;48.120;11.562;2022-11-12T02:10:53;37.42;;;22.40;;
23498;SDS011;11926;48.120;11.562;2022-11-12T02:14:00;37.22;;;21.60;;
23498;SDS011;11926;48.120;11.562;2022-11-12T02:17:10;33.95;;;23.10;;
23498;SDS011;11926;48.120;11.562;2022-11-12T02:20:20;33.05;;;20.95;;
23498;SDS011;11926;48.120;11.562;2022-11-12T02:23:28;32.40;;;21.48;;
23498;SDS011;11926;48.120;11.562;2022-11-12T02:26:39;31.58;;;20.70;;
23498;SDS011;11926;48.120;11.562;2022-11-12T02:29:52;31.88;;;20.92;;
23498;SDS011;11926;48.120;11.562;2022-11-12T02:33:03;30.70;;;20.35;;
23498;SDS011;11926;48.120;11.562;2022-11-12T02:36:10;28.95;;;19.33;;
23498;SDS011;11926;48.120;11.562;2022-11-12T02:39:19;28.92;;;18.88;;
23498;SDS011;11926;48.120;11.562;2022-11-12T02:42:28;29.77;;;19.15;;
23498;SDS011;11926;48.120;11.562;2022-11-12T02:45:35;28.80;;;19.73;;
23498;SDS011;11926;48.120;11.562;2022-11-12T02:48:48;29.15;;;19.70;;
23498;SDS011;11926;48.120;11.562;2022-11-12T02:52:01;27.25;;;19.05;;
23498;SDS011;11926;48.120;11.562;2022-11-12T02:55:17;27.98;;;19.58;;
23498;SDS011;11926;48.120;11.562;2022-11-12T02:58:24;28.65;;;18.55;;
23498;SDS011;11926;48.120;11.562;2022-11-12T03:01:37;27.88;;;19.17;;
23498;SDS011;11926;48.120;11.562;2022-11-12T03:04:46;28.20;;;17.88;;
23498;SDS011;11926;48.120;11.562;2022-11-12T03:07:55;28.20;;;17.65;;
23498;SDS011;11926;48.120;11.562;2022-11-12T03:11:10;28.23;;;17.00;;
23498;SDS011;11926;48.120;11.562;2022-11-12T03:14:20;28.70;;;18.17;;
23498;SDS011;11926;48.120;11.562;2022-11-12T03:18:06;24.55;;;16.20;;
23498;SDS011;11926;48.120;11.562;2022-11-12T03:21:32;22.25;;;16.02;;
23498;SDS011;11926;48.120;11.562;2022-11-12T03:24:39;25.95;;;16.05;;
23498;SDS011;11926;48.120;11.562;2022-11-12T03:27:48;25.65;;;16.63;;
23498;SDS011;11926;48.120;11.562;2022-11-12T03:34:18;24.02;;;15.82;;
23498;SDS011;11926;48.120;11.562;2022-11-12T03:37:34;23.40;;;15.60;;
23498;SDS011;11926;48.120;11.562;2022-11-12T03:44:53;22.58;;;15.43;;
23498;SDS011;11926;48.120;11.562;2022-11-12T03:48:04;25.05;;;15.85;;
23498;SDS011;11926;48.120;11.562;2022-11-12T03:51:12;21.25;;;14.85;;
23498;SDS011;11926;48.120;11.562;2022-11-12T03:58:00;28.10;;;17.20;;
23498;SDS011;11926;48.120;11.562;2022-11-12T04:01:13;26.20;;;17.48;;
23498;SDS011;11926;48.120;11.562;2022-11-12T04:04:54;33.30;;;20.27;;
23498;SDS011;11926;48.120;11.562;2022-11-12T04:08:18;52.83;;;19.73;;
23498;SDS011;11926;48.120;11.562;2022-11-12T04:12:07;47.88;;;20.10;;
23498;SDS011;11926;48.120;11.562;2022-11-12T04:15:22;36.53;;;19.30;;
23498;SDS011;11926;48.120;11.562;2022-11-12T04:18:37;34.28;;;19.45;;
23498;SDS011;11926;48.120;11.562;2022-11-12T04:21:59;40.47;;;20.95;;
23498;SDS011;11926;48.120;11.562;2022-11-12T04:25:11;53.95;;;21.05;;
23498;SDS011;11926;48.120;11.562;2022-11-12T04:28:36;41.85;;;22.75;;
23498;SDS011;11926;48.120;11.562;2022-11-12T04:31:42;51.80;;;21.77;;
23498;SDS011;11926;48.120;11.562;2022-11-12T04:34:49;35.10;;;19.70;;
23498;SDS011;11926;48.120;11.562;2022-11-12T04:37:55;84.78;;;23.98;;
23498;SDS011;11926;48.120;11.562;2022-11-12T04:41:02;59.20;;;21.30;;
23498;SDS011;11926;48.120;11.562;2022-11-12T04:44:22;41.03;;;20.25;;
23498;SDS011;11926;48.120;11.562;2022-11-12T04:47:45;52.33;;;20.05;;
23498;SDS011;11926;48.120;11.562;2022-11-12T04:50:53;37.30;;;19.48;;
23498;SDS011;11926;48.120;11.562;2022-11-12T04:57:40;43.80;;;19.30;;
23498;SDS011;11926;48.120;11.562;2022-11-12T05:01:09;63.50;;;20.17;;
23498;SDS011;11926;48.120;11.562;2022-11-12T05:04:24;95.30;;;20.70;;
23498;SDS011;11926;48.120;11.562;2022-11-12T05:07:39;82.68;;;19.67;;
23498;SDS011;11926;48.120;11.562;2022-11-12T05:11:09;46.15;;;17.58;;
23498;SDS011;11926;48.120;11.562;2022-11-12T05:14:16;62.67;;;19.02;;
23498;SDS011;11926;48.120;11.562;2022-11-12T05:18:04;38.83;;;17.48;;
23498;SDS011;11926;48.120;11.562;2022-11-12T05:21:21;52.88;;;16.80;;
23498;SDS011;11926;48.120;11.562;2022-11-12T05:24:48;60.67;;;17.83;;
23498;SDS011;11926;48.120;11.562;2022-11-12T05:28:01;41.85;;;17.90;;
23498;SDS011;11926;48.120;11.562;2022-11-12T05:31:34;36.05;;;16.95;;
23498;SDS011;11926;48.120;11.562;2022-11-12T05:38:38;30.35;;;17.70;;
23498;SDS011;11926;48.120;11.562;2022-11-12T05:41:47;31.23;;;14.63;;
23498;SDS011;11926;48.120;11.562;2022-11-12T05:45:16;38.30;;;15.55;;
23498;SDS011;11926;48.120;11.562;2022-11-12T05:48:37;43.35;;;15.93;;
23498;SDS011;11926;48.120;11.562;2022-11-12T05:51:45;27.88;;;14.85;;
23498;SDS011;11926;48.120;11.562;2022-11-12T05:55:00;32.40;;;15.27;;
23498;SDS011;11926;48.120;11.562;2022-11-12T05:58:09;53.80;;;17.57;;
23498;SDS011;11926;48.120;11.562;2022-11-12T06:01:15;68.70;;;17.75;;
23498;SDS011;11926;48.120;11.562;2022-11-12T06:04:22;47.33;;;16.02;;
23498;SDS011;11926;48.120;11.562;2022-11-12T06:07:29;40.45;;;15.82;;
23498;SDS011;11926;48.120;11.562;2022-11-12T06:10:36;42.72;;;15.82;;
23498;SDS011;11926;48.120;11.562;2022-11-12T06:13:44;42.80;;;16.30;;
23498;SDS011;11926;48.120;11.562;2022-11-12T06:16:50;56.25;;;16.17;;
23498;SDS011;11926;48.120;11.562;2022-11-12T06:19:56;22.25;;;13.02;;
23498;SDS011;11926;48.120;11.562;2022-11-12T06:23:03;42.45;;;14.15;;
23498;SDS011;11926;48.120;11.562;2022-11-12T06:26:09;23.17;;;12.63;;
23498;SDS011;11926;48.120;11.562;2022-11-12T06:29:17;28.75;;;12.57;;
23498;SDS011;11926;48.120;11.562;2022-11-12T06:32:23;24.73;;;13.60;;
23498;SDS011;11926;48.120;11.562;2022-11-12T06:35:29;22.77;;;12.93;;
23498;SDS011;11926;48.120;11.562;2022-11-12T06:38:36;37.53;;;13.88;;
23498;SDS011;11926;48.120;11.562;2022-11-12T06:41:44;30.35;;;13.88;;
23498;SDS011;11926;48.120;11.562;2022-11-12T06:44:52;27.25;;;13.32;;
23498;SDS011;11926;48.120;11.562;2022-11-12T06:47:58;44.40;;;14.30;;
23498;SDS011;11926;48.120;11.562;2022-11-12T06:51:06;32.25;;;12.93;;
23498;SDS011;11926;48.120;11.562;2022-11-12T06:54:15;63.70;;;12.30;;
23498;SDS011;11926;48.120;11.562;2022-11-12T06:57:22;25.55;;;11.32;;
23498;SDS011;11926;48.120;11.562;2022-11-12T07:00:30;32.58;;;11.82;;
23498;SDS011;11926;48.120;11.562;2022-11-12T07:03:38;23.85;;;10.52;;
23498;SDS011;11926;48.120;11.562;2022-11-12T07:06:53;24.27;;;10.88;;
23498;SDS011;11926;48.120;11.562;2022-11-12T07:10:08;24.52;;;11.90;;
23498;SDS011;11926;48.120;11.562;2022-11-12T07:13:17;24.10;;;10.68;;
23498;SDS011;11926;48.120;11.562;2022-11-12T07:16:46;15.63;;;10.10;;
23498;SDS011;11926;48.120;11.562;2022-11-12T07:19:56;14.57;;;10.20;;
23498;SDS011;11926;48.120;11.562;2022-11-12T07:23:07;12.30;;;9.15;;
23498;SDS011;11926;48.120;11.562;2022-11-12T07:26:29;12.55;;;9.05;;
23498;SDS011;11926;48.120;11.562;2022-11-12T07:29:37;13.10;;;8.30;;
23498;SDS011;11926;48.120;11.562;2022-11-12T07:32:53;13.23;;;9.57;;
23498;SDS011;11926;48.120;11.562;2022-11-12T07:36:09;12.18;;;9.07;;
23498;SDS011;11926;48.120;11.562;2022-11-12T07:39:18;20.00;;;9.55;;
23498;SDS011;11926;48.120;11.562;2022-11-12T07:42:25;11.73;;;7.97;;
23498;SDS011;11926;48.120;11.562;2022-11-12T07:45:38;12.20;;;9.02;;
23498;SDS011;11926;48.120;11.562;2022-11-12T07:48:46;11.93;;;8.88;;
23498;SDS011;11926;48.120;11.562;2022-11-12T07:51:52;13.43;;;9.93;;
23498;SDS011;11926;48.120;11.562;2022-11-12T07:54:59;13.65;;;10.65;;
23498;SDS011;11926;48.120;11.562;2022-11-12T07:58:05;17.23;;;10.52;;
23498;SDS011;11926;48.120;11.562;2022-11-12T08:01:16;13.55;;;10.02;;
23498;SDS011;11926;48.120;11.562;2022-11-12T08:04:30;12.35;;;8.85;;
23498;SDS011;11926;48.120;11.562;2022-11-12T08:07:37;21.75;;;11.18;;
23498;SDS011;11926;48.120;11.562;2022-11-12T08:10:43;22.52;;;11.93;;
23498;SDS011;11926;48.120;11.562;2022-11-12T08:13:49;79.30;;;48.22;;
23498;SDS011;11926;48.120;11.562;2022-11-12T08:16:56;13.70;;;9.50;;
23498;SDS011;11926;48.120;11.562;2022-11-12T08:20:04;17.65;;;11.77;;
23498;SDS011;11926;48.120;11.562;2022-11-12T08:23:12;19.73;;;9.55;;
23498;SDS011;11926;48.120;11.562;2022-11-12T08:26:19;14.90;;;11.70;;
23498;SDS011;11926;48.120;11.562;2022-11-12T08:29:25;13.52;;;9.13;;
23498;SDS011;11926;48.120;11.562;2022-11-12T08:32:31;12.85;;;9.05;;
23498;SDS011;11926;48.120;11.562;2022-11-12T08:35:39;11.75;;;8.38;;
23498;SDS011;11926;48.120;11.562;2022-11-12T08:38:45;11.00;;;8.57;;
23498;SDS011;11926;48.120;11.562;2022-11-12T08:41:51;13.23;;;10.02;;
23498;SDS011;11926;48.120;11.562;2022-11-12T08:44:58;15.30;;;8.85;;
23498;SDS011;11926;48.120;11.562;2022-11-12T08:48:05;13.82;;;9.55;;
23498;SDS011;11926;48.120;11.562;2022-11-12T08:51:14;14.75;;;10.45;;
23498;SDS011;11926;48.120;11.562;2022-11-12T08:54:20;14.55;;;10.85;;
23498;SDS011;11926;48.120;11.562;2022-11-12T08:57:27;13.57;;;10.18;;
23498;SDS011;11926;48.120;11.562;2022-11-12T09:00:33;19.20;;;12.38;;
23498;SDS011;11926;48.120;11.562;2022-11-12T09:03:41;15.65;;;11.82;;
23498;SDS011;11926;48.120;11.562;2022-11-12T09:06:49;14.07;;;11.07;;
23498;SDS011;11926;48.120;11.562;2022-11-12T09:09:57;14.95;;;10.30;;
23498;SDS011;11926;48.120;11.562;2022-11-12T09:13:04;14.15;;;10.32;;
23498;SDS011;11926;48.120;11.562;2022-11-12T09:16:10;15.45;;;10.60;;
23498;SDS011;11926;48.120;11.562;2022-11-12T09:19:17;12.80;;;10.02;;
23498;SDS011;11926;48.120;11.562;2022-11-12T09:22:25;12.63;;;10.07;;
23498;SDS011;11926;48.120;11.562;2022-11-12T09:25:32;16.77;;;11.48;;
23498;SDS011;11926;48.120;11.562;2022-11-12T09:28:38;14.82;;;10.15;;
23498;SDS011;11926;48.120;11.562;2022-11-12T09:31:45;16.90;;;10.02;;
23498;SDS011;11926;48.120;11.562;2022-11-12T09:34:52;13.15;;;10.55;;
23498;SDS011;11926;48.120;11.562;2022-11-12T09:38:00;15.90;;;11.00;;
23498;SDS011;11926;48.120;11.562;2022-11-12T09:41:12;12.95;;;8.93;;
23498;SDS011;11926;48.120;11.562;2022-11-12T09:44:24;14.63;;;9.50;;
23498;SDS011;11926;48.120;11.562;2022-11-12T09:47:39;14.77;;;10.35;;
23498;SDS011;11926;48.120;11.562;2022-11-12T09:50:52;13.38;;;10.48;;
23498;SDS011;11926;48.120;11.562;2022-11-12T09:54:05;13.57;;;10.43;;
23498;SDS011;11926;48.120;11.562;2022-11-12T09:57:21;11.35;;;9.25;;
23498;SDS011;11926;48.120;11.562;2022-11-12T10:00:27;11.93;;;9.30;;
23498;SDS011;11926;48.120;11.562;2022-11-12T10:03:36;11.30;;;9.02;;
23498;SDS011;11926;48.120;11.562;2022-11-12T10:06:47;11.35;;;9.18;;
23498;SDS011;11926;48.120;11.562;2022-11-12T10:10:02;13.38;;;9.45;;
23498;SDS011;11926;48.120;11.562;2022-11-12T10:13:21;14.52;;;12.07;;
23498;SDS011;11926;48.120;11.562;2022-11-12T10:16:40;10.57;;;8.57;;
23498;SDS011;11926;48.120;11.562;2022-11-12T10:19:59;11.38;;;8.25;;
23498;SDS011;11926;48.120;11.562;2022-11-12T10:23:19;9.90;;;8.65;;
23498;SDS011;11926;48.120;11.562;2022-11-12T10:26:30;10.05;;;8.27;;
23498;SDS011;11926;48.120;11.562;2022-11-12T10:29:38;11.40;;;7.72;;
23498;SDS011;11926;48.120;11.562;2022-11-12T10:32:52;10.57;;;7.65;;
23498;SDS011;11926;48.120;11.562;2022-11-12T10:36:09;9.38;;;7.50;;
23498;SDS011;11926;48.120;11.562;2022-11-12T10:42:56;9.75;;;7.35;;
23498;SDS011;11926;48.120;11.562;2022-11-12T10:46:12;9.45;;;7.78;;
23498;SDS011;11926;48.120;11.562;2022-11-12T10:49:23;8.30;;;6.90;;
23498;SDS011;11926;48.120;11.562;2022-11-12T10:52:30;11.40;;;7.20;;
23498;SDS011;11926;48.120;11.562;2022-11-12T10:55:39;8.55;;;7.05;;
23498;SDS011;11926;48.120;11.562;2022-11-12T10:59:10;10.57;;;7.23;;
23498;SDS011;11926;48.120;11.562;2022-11-12T11:02:21;9.75;;;7.38;;
23498;SDS011;11926;48.120;11.562;2022-11-12T11:05:29;9.45;;;7.22;;
23498;SDS011;11926;48.120;11.562;2022-11-12T11:08:39;10.82;;;7.65;;
23498;SDS011;11926;48.120;11.562;2022-11-12T11:11:48;14.43;;;7.53;;
23498;SDS011;11926;48.120;11.562;2022-11-12T11:15:06;12.07;;;7.10;;
23498;SDS011;11926;48.120;11.562;2022-11-12T11:18:25;11.60;;;7.85;;
23498;SDS011;11926;48.120;11.562;2022-11-12T11:21:40;9.77;;;8.10;;
23498;SDS011;11926;48.120;11.562;2022-11-12T11:25:03;10.30;;;7.45;;
23498;SDS011;11926;48.120;11.562;2022-11-12T11:28:20;14.55;;;8.48;;
23498;SDS011;11926;48.120;11.562;2022-11-12T11:31:41;11.32;;;8.70;;
23498;SDS011;11926;48.120;11.562;2022-11-12T11:34:57;13.95;;;9.32;;
23498;SDS011;11926;48.120;11.562;2022-11-12T11:38:20;13.45;;;8.77;;
23498;SDS011;11926;48.120;11.562;2022-11-12T11:41:42;14.10;;;9.10;;
23498;SDS011;11926;48.120;11.562;2022-11-12T11:44:57;12.77;;;9.10;;
23498;SDS011;11926;48.120;11.562;2022-11-12T11:48:14;13.02;;;9.68;;
23498;SDS011;11926;48.120;11.562;2022-11-12T11:51:35;12.32;;;9.88;;
23498;SDS011;11926;48.120;11.562;2022-11-12T11:54:52;14.70;;;9.32;;
23498;SDS011;11926;48.120;11.562;2022-11-12T11:58:11;12.68;;;9.10;;
23498;SDS011;11926;48.120;11.562;2022-11-12T12:01:35;12.20;;;9.65;;
23498;SDS011;11926;48.120;11.562;2022-11-12T12:04:56;15.80;;;10.20;;
23498;SDS011;11926;48.120;11.562;2022-11-12T12:08:14;14.90;;;10.07;;
23498;SDS011;11926;48.120;11.562;2022-11-12T12:11:31;14.77;;;9.80;;
23498;SDS011;11926;48.120;11.562;2022-11-12T12:14:44;14.40;;;10.32;;
23498;SDS011;11926;48.120;11.562;2022-11-12T12:17:59;14.52;;;10.63;;
23498;SDS011;11926;48.120;11.562;2022-11-12T12:21:18;13.75;;;10.80;;
23498;SDS011;11926;48.120;11.562;2022-11-12T12:24:26;15.68;;;10.55;;
23498;SDS011;11926;48.120;11.562;2022-11-12T12:27:37;13.73;;;10.07;;
23498;SDS011;11926;48.120;11.562;2022-11-12T12:30:50;12.32;;;10.13;;
23498;SDS011;11926;48.120;11.562;2022-11-12T12:34:01;16.27;;;10.60;;
23498;SDS011;11926;48.120;11.562;2022-11-12T12:37:14;14.15;;;10.90;;
23498;SDS011;11926;48.120;11.562;2022-11-12T12:40:30;14.50;;;11.05;;
23498;SDS011;11926;48.120;11.562;2022-11-12T12:43:40;12.73;;;9.87;;
23498;SDS011;11926;48.120;11.562;2022-11-12T12:46:51;14.38;;;10.70;;
23498;SDS011;11926;48.120;11.562;2022-11-12T12:50:02;22.95;;;10.32;;
23498;SDS011;11926;48.120;11.562;2022-11-12T12:53:17;14.23;;;9.68;;
23498;SDS011;11926;48.120;11.562;2022-11-12T12:56:45;17.75;;;10.25;;
23498;SDS011;11926;48.120;11.562;2022-11-12T12:59:58;13.50;;;9.80;;
23498;SDS011;11926;48.120;11.562;2022-11-12T13:03:47;15.48;;;10.20;;
23498;SDS011;11926;48.120;11.562;2022-11-12T13:06:57;12.90;;;9.60;;
23498;SDS011;11926;48.120;11.562;2022-11-12T13:16:56;14.57;;;9.68;;
23498;SDS011;11926;48.120;11.562;2022-11-12T13:23:42;11.93;;;9.25;;
23498;SDS011;11926;48.120;11.562;2022-11-12T13:27:05;12.80;;;9.35;;
23498;SDS011;11926;48.120;11.562;2022-11-12T13:30:54;13.50;;;9.52;;
23498;SDS011;11926;48.120;11.562;2022-11-12T13:37:03;12.75;;;9.35;;
23498;SDS011;11926;48.120;11.562;2022-11-12T13:40:12;14.48;;;10.07;;
23498;SDS011;11926;48.120;11.562;2022-11-12T13:43:24;14.70;;;10.00;;
23498;SDS011;11926;48.120;11.562;2022-11-12T13:46:37;13.30;;;9.63;;
23498;SDS011;11926;48.120;11.562;2022-11-12T13:49:43;15.50;;;9.68;;
23498;SDS011;11926;48.120;11.562;2022-11-12T13:52:53;14.13;;;9.65;;
23498;SDS011;11926;48.120;11.562;2022-11-12T13:55:59;14.27;;;9.65;;
23498;SDS011;11926;48.120;11.562;2022-11-12T13:59:07;13.52;;;9.75;;
23498;SDS011;11926;48.120;11.562;2022-11-12T14:02:19;14.40;;;9.65;;
23498;SDS011;11926;48.120;11.562;2022-11-12T14:05:30;15.00;;;9.32;;
23498;SDS011;11926;48.120;11.562;2022-11-12T14:08:46;14.90;;;9.63;;
23498;SDS011;11926;48.120;11.562;2022-11-12T14:12:05;13.13;;;9.40;;
23498;SDS011;11926;48.120;11.562;2022-11-12T14:15:29;11.23;;;9.13;;
23498;SDS011;11926;48.120;11.562;2022-11-12T14:18:57;12.88;;;9.35;;
23498;SDS011;11926;48.120;11.562;2022-11-12T14:22:23;13.07;;;9.23;;
23498;SDS011;11926;48.120;11.562;2022-11-12T14:25:30;11.98;;;8.98;;
23498;SDS011;11926;48.120;11.562;2022-11-12T14:28:37;14.35;;;9.05;;
23498;SDS011;11926;48.120;11.562;2022-11-12T14:31:43;13.10;;;9.45;;
23498;SDS011;11926;48.120;11.562;2022-11-12T14:34:50;12.70;;;8.98;;
23498;SDS011;11926;48.120;11.562;2022-11-12T14:37:57;14.65;;;9.77;;
23498;SDS011;11926;48.120;11.562;2022-11-12T14:41:14;15.18;;;10.63;;
23498;SDS011;11926;48.120;11.562;2022-11-12T14:44:26;16.83;;;10.02;;
23498;SDS011;11926;48.120;11.562;2022-11-12T14:50:44;11.95;;;8.95;;
23498;SDS011;11926;48.120;11.562;2022-11-12T14:53:55;16.67;;;9.25;;
23498;SDS011;11926;48.120;11.562;2022-11-12T14:57:08;16.20;;;9.77;;
23498;SDS011;11926;48.120;11.562;2022-11-12T15:00:36;14.40;;;9.93;;
23498;SDS011;11926;48.120;11.562;2022-11-12T15:03:46;12.88;;;9.60;;
23498;SDS011;11926;48.120;11.562;2022-11-12T15:06:55;13.85;;;9.55;;
23498;SDS011;11926;48.120;11.562;2022-11-12T15:13:40;14.02;;;9.77;;
23498;SDS011;11926;48.120;11.562;2022-11-12T15:16:48;12.90;;;9.32;;
23498;SDS011;11926;48.120;11.562;2022-11-12T15:19:59;14.05;;;10.38;;
23498;SDS011;11926;48.120;11.562;2022-11-12T15:23:13;18.73;;;10.77;;
23498;SDS011;11926;48.120;11.562;2022-11-12T15:26:24;17.30;;;11.20;;
23498;SDS011;11926;48.120;11.562;2022-11-12T15:29:39;15.32;;;11.75;;
23498;SDS011;11926;48.120;11.562;2022-11-12T15:32:46;17.52;;;13.07;;
23498;SDS011;11926;48.120;11.562;2022-11-12T15:35:54;16.33;;;12.38;;
23498;SDS011;11926;48.120;11.562;2022-11-12T15:39:02;21.20;;;14.55;;
23498;SDS011;11926;48.120;11.562;2022-11-12T15:42:12;20.45;;;15.05;;
23498;SDS011;11926;48.120;11.562;2022-11-12T15:45:24;20.83;;;13.60;;
23498;SDS011;11926;48.120;11.562;2022-11-12T15:48:30;22.17;;;13.30;;
23498;SDS011;11926;48.120;11.562;2022-11-12T15:51:37;20.58;;;13.70;;
23498;SDS011;11926;48.120;11.562;2022-11-12T15:54:43;21.98;;;14.73;;
23498;SDS011;11926;48.120;11.562;2022-11-12T15:57:50;22.83;;;14.48;;
23498;SDS011;11926;48.120;11.562;2022-11-12T16:00:59;24.42;;;14.93;;
23498;SDS011;11926;48.120;11.562;2022-11-12T16:04:05;20.90;;;13.93;;
23498;SDS011;11926;48.120;11.562;2022-11-12T16:07:11;18.88;;;14.07;;
23498;SDS011;11926;48.120;11.562;2022-11-12T16:10:17;18.38;;;14.27;;
23498;SDS011;11926;48.120;11.562;2022-11-12T16:13:24;19.98;;;14.70;;
23498;SDS011;11926;48.120;11.562;2022-11-12T16:16:34;21.70;;;14.23;;
23498;SDS011;11926;48.120;11.562;2022-11-12T16:19:42;17.55;;;13.02;;
23498;SDS011;11926;48.120;11.562;2022-11-12T16:22:48;18.70;;;13.40;;
23498;SDS011;11926;48.120;11.562;2022-11-12T16:25:56;18.92;;;13.90;;
23498;SDS011;11926;48.120;11.562;2022-11-12T16:29:02;20.88;;;14.23;;
23498;SDS011;11926;48.120;11.562;2022-11-12T16:32:12;21.20;;;13.65;;
23498;SDS011;11926;48.120;11.562;2022-11-12T16:35:18;26.60;;;14.00;;
23498;SDS011;11926;48.120;11.562;2022-11-12T16:38:24;30.70;;;13.48;;
23498;SDS011;11926;48.120;11.562;2022-11-12T16:41:30;20.38;;;13.02;;
23498;SDS011;11926;48.120;11.562;2022-11-12T16:44:37;45.25;;;15.18;;
23498;SDS011;11926;48.120;11.562;2022-11-12T16:47:46;18.17;;;13.60;;
23498;SDS011;11926;48.120;11.562;2022-11-12T16:50:54;29.08;;;15.40;;
23498;SDS011;11926;48.120;11.562;2022-11-12T16:54:05;40.83;;;15.60;;
23498;SDS011;11926;48.120;11.562;2022-11-12T16:57:12;35.30;;;14.77;;
23498;SDS011;11926;48.120;11.562;2022-11-12T17:00:19;97.78;;;16.30;;
23498;SDS011;11926;48.120;11.562;2022-11-12T17:03:27;39.00;;;15.80;;
23498;SDS011;11926;48.120;11.562;2022-11-12T17:06:35;35.38;;;16.08;;
23498;SDS011;11926;48.120;11.562;2022-11-12T17:09:44;38.90;;;16.25;;
23498;SDS011;11926;48.120;11.562;2022-11-12T17:12:51;21.10;;;15.63;;
23498;SDS011;11926;48.120;11.562;2022-11-12T17:15:59;22.58;;;15.88;;
23498;SDS011;11926;48.120;11.562;2022-11-12T17:19:08;22.33;;;15.50;;
23498;SDS011;11926;48.120;11.562;2022-11-12T17:22:15;25.02;;;16.23;;
23498;SDS011;11926;48.120;11.562;2022-11-12T17:25:23;25.63;;;15.60;;
23498;SDS011;11926;48.120;11.562;2022-11-12T17:28:31;42.25;;;16.77;;
23498;SDS011;11926;48.120;11.562;2022-11-12T17:31:38;26.42;;;17.33;;
23498;SDS011;11926;48.120;11.562;2022-11-12T17:34:47;31.63;;;16.95;;
23498;SDS011;11926;48.120;11.562;2022-11-12T17:37:53;52.67;;;18.33;;
23498;SDS011;11926;48.120;11.562;2022-11-12T17:41:00;40.25;;;16.15;;
23498;SDS011;11926;48.120;11.562;2022-11-12T17:44:10;52.75;;;17.92;;
23498;SDS011;11926;48.120;11.562;2022-11-12T17:47:20;26.40;;;17.80;;
23498;SDS011;11926;48.120;11.562;2022-11-12T17:50:28;54.60;;;17.00;;
23498;SDS011;11926;48.120;11.562;2022-11-12T17:53:34;53.03;;;16.58;;
23498;SDS011;11926;48.120;11.562;2022-11-12T17:56:40;37.30;;;15.98;;
23498;SDS011;11926;48.120;11.562;2022-11-12T17:59:46;38.72;;;15.93;;
23498;SDS011;11926;48.120;11.562;2022-11-12T18:02:53;22.23;;;15.00;;
23498;SDS011;11926;48.120;11.562;2022-11-12T18:06:01;39.95;;;16.60;;
23498;SDS011;11926;48.120;11.562;2022-11-12T18:09:11;30.25;;;16.55;;
23498;SDS011;11926;48.120;11.562;2022-11-12T18:12:18;25.83;;;16.60;;
23498;SDS011;11926;48.120;11.562;2022-11-12T18:15:24;26.50;;;16.38;;
23498;SDS011;11926;48.120;11.562;2022-11-12T18:18:31;27.20;;;16.77;;
23498;SDS011;11926;48.120;11.562;2022-11-12T18:21:39;33.80;;;17.48;;
23498;SDS011;11926;48.120;11.562;2022-11-12T18:24:46;25.05;;;15.30;;
23498;SDS011;11926;48.120;11.562;2022-11-12T18:27:52;40.78;;;16.23;;
23498;SDS011;11926;48.120;11.562;2022-11-12T18:30:59;22.63;;;15.90;;
23498;SDS011;11926;48.120;11.562;2022-11-12T18:34:05;23.05;;;14.05;;
23498;SDS011;11926;48.120;11.562;2022-11-12T18:37:15;76.40;;;17.52;;
23498;SDS011;11926;48.120;11.562;2022-11-12T18:40:21;28.73;;;16.63;;
23498;SDS011;11926;48.120;11.562;2022-11-12T18:43:28;41.15;;;17.80;;
23498;SDS011;11926;48.120;11.562;2022-11-12T18:46:35;40.22;;;17.15;;
23498;SDS011;11926;48.120;11.562;2022-11-12T18:49:41;31.20;;;17.42;;
23498;SDS011;11926;48.120;11.562;2022-11-12T18:52:50;27.85;;;17.45;;
23498;SDS011;11926;48.120;11.562;2022-11-12T18:55:58;40.67;;;18.48;;
23498;SDS011;11926;48.120;11.562;2022-11-12T18:59:06;31.95;;;19.38;;
23498;SDS011;11926;48.120;11.562;2022-11-12T19:02:15;31.02;;;19.83;;
23498;SDS011;11926;48.120;11.562;2022-11-12T19:05:21;31.85;;;18.00;;
23498;SDS011;11926;48.120;11.562;2022-11-12T19:08:29;30.42;;;19.45;;
23498;SDS011;11926;48.120;11.562;2022-11-12T19:11:37;32.30;;;18.52;;